Time;durP1;ratioP1;P1;durP2;ratioP2;P2;SDS_P1;SDS_P2;PMS_P1;PMS_P2;Temp;Humidity;BMP_temperature;BMP_pressure;BME280_temperature;BME280_humidity;BME280_pressure;Samples;Min_cycle;Max_cycle;Signal;HPM_P1;HPM_P2
2023/10/21 00:01:39;;;;;;;41.83;9.83;;;;;;;;;;6240843;28;20637;-62
2023/10/21 00:04:40;;;;;;;41.97;10.10;;;;;;;;;;6242064;28;20048;-62
2023/10/21 00:07:40;;;;;;;39.77;10.90;;;;;;;;;;6244336;28;20053;-62
2023/10/21 00:10:41;;;;;;;46.83;11.17;;;;;;;;;;6261894;28;20088;-62
2023/10/21 00:13:42;;;;;;;49.57;12.00;;;;;;;;;;6264531;28;20037;-61
2023/10/21 00:16:43;;;;;;;48.33;11.93;;;;;;;;;;6261307;28;20554;-62
2023/10/21 00:19:44;;;;;;;48.47;12.10;;;;;;;;;;6262320;28;20427;-63
2023/10/21 00:22:45;;;;;;;47.60;11.57;;;;;;;;;;6266468;28;20059;-62
2023/10/21 00:25:45;;;;;;;46.97;11.07;;;;;;;;;;6267190;28;20048;-62
2023/10/21 00:28:46;;;;;;;39.83;10.37;;;;;;;;;;6268252;28;20516;-62
2023/10/21 00:31:46;;;;;;;37.57;10.17;;;;;;;;;;6266480;28;20507;-62
2023/10/21 00:34:47;;;;;;;39.33;11.43;;;;;;;;;;6248884;28;20056;-63
2023/10/21 00:37:48;;;;;;;42.88;10.98;;;;;;;;;;6248310;28;20046;-63
2023/10/21 00:40:53;;;;;;;39.60;11.10;;;;;;;;;;6248172;28;20138;-61
2023/10/21 00:43:53;;;;;;;46.97;11.30;;;;;;;;;;6246407;28;20061;-63
2023/10/21 00:46:54;;;;;;;44.10;10.48;;;;;;;;;;6246177;28;20099;-62
2023/10/21 00:49:55;;;;;;;36.40;9.20;;;;;;;;;;6246398;28;20041;-62
2023/10/21 00:52:56;;;;;;;48.40;10.33;;;;;;;;;;6246390;28;20417;-62
2023/10/21 00:55:59;;;;;;;41.42;9.90;;;;;;;;;;6244990;28;20303;-62
2023/10/21 00:59:00;;;;;;;36.67;9.70;;;;;;;;;;6245581;28;20053;-62
2023/10/21 01:02:00;;;;;;;44.45;11.35;;;;;;;;;;6247163;28;20041;-62
2023/10/21 01:05:01;;;;;;;38.83;10.87;;;;;;;;;;6245607;28;20571;-63
2023/10/21 01:08:02;;;;;;;43.20;10.03;;;;;;;;;;6243881;28;20057;-63
2023/10/21 01:11:02;;;;;;;40.00;10.07;;;;;;;;;;6246155;28;20053;-63
2023/10/21 01:14:03;;;;;;;40.72;11.10;;;;;;;;;;6245867;28;20046;-62
2023/10/21 01:17:04;;;;;;;49.00;16.67;;;;;;;;;;6244770;28;20037;-62
2023/10/21 01:20:06;;;;;;;51.73;11.13;;;;;;;;;;6246712;28;20045;-62
2023/10/21 01:23:07;;;;;;;46.42;11.55;;;;;;;;;;6244810;28;20052;-63
2023/10/21 01:26:08;;;;;;;45.38;13.50;;;;;;;;;;6245360;28;20081;-63
2023/10/21 01:29:11;;;;;;;49.22;13.30;;;;;;;;;;6254657;28;20598;-63
2023/10/21 01:32:12;;;;;;;42.35;12.85;;;;;;;;;;6245705;28;20046;-63
2023/10/21 01:35:13;;;;;;;48.97;23.63;;;;;;;;;;6258709;28;20065;-63
2023/10/21 01:38:15;;;;;;;61.63;29.60;;;;;;;;;;6245486;28;20553;-63
2023/10/21 01:41:15;;;;;;;59.75;19.15;;;;;;;;;;6244362;28;20059;-64
2023/10/21 01:44:16;;;;;;;51.13;19.48;;;;;;;;;;6244457;28;20053;-63
2023/10/21 01:47:17;;;;;;;51.35;17.27;;;;;;;;;;6243003;28;20096;-63
2023/10/21 01:50:17;;;;;;;51.15;15.23;;;;;;;;;;6242889;28;20500;-63
2023/10/21 01:53:18;;;;;;;49.03;12.73;;;;;;;;;;6246197;28;20053;-63
2023/10/21 01:56:18;;;;;;;45.50;13.18;;;;;;;;;;6244161;28;20076;-63
2023/10/21 01:59:19;;;;;;;45.47;12.60;;;;;;;;;;6242418;28;20055;-63
2023/10/21 02:02:19;;;;;;;49.20;21.83;;;;;;;;;;6247095;28;20463;-63
2023/10/21 02:05:22;;;;;;;76.07;43.45;;;;;;;;;;6244040;28;20072;-63
2023/10/21 02:08:22;;;;;;;54.10;13.93;;;;;;;;;;6243071;28;20050;-63
2023/10/21 02:11:26;;;;;;;45.67;14.15;;;;;;;;;;6244461;28;20046;-63
2023/10/21 02:14:26;;;;;;;44.92;13.05;;;;;;;;;;6246253;28;20128;-63
2023/10/21 02:17:27;;;;;;;39.83;11.63;;;;;;;;;;6244234;28;20136;-63
2023/10/21 02:20:28;;;;;;;48.50;12.95;;;;;;;;;;6243238;28;20076;-63
2023/10/21 02:23:28;;;;;;;37.53;12.35;;;;;;;;;;6243618;28;20053;-63
2023/10/21 02:26:29;;;;;;;45.60;12.48;;;;;;;;;;6248441;28;20052;-62
2023/10/21 02:29:31;;;;;;;51.13;12.43;;;;;;;;;;6257154;28;20045;-62
2023/10/21 02:32:31;;;;;;;61.38;26.58;;;;;;;;;;6257667;28;20059;-62
2023/10/21 02:35:33;;;;;;;56.45;18.25;;;;;;;;;;6242892;28;20484;-62
2023/10/21 02:38:33;;;;;;;75.65;33.47;;;;;;;;;;6244032;28;20053;-62
2023/10/21 02:41:34;;;;;;;46.60;21.52;;;;;;;;;;6244218;28;20165;-62
2023/10/21 02:44:35;;;;;;;52.78;18.98;;;;;;;;;;6244074;28;20057;-62
2023/10/21 02:47:36;;;;;;;52.08;17.17;;;;;;;;;;6244233;28;20041;-62
2023/10/21 02:50:37;;;;;;;50.17;16.00;;;;;;;;;;6243486;28;20053;-62
2023/10/21 02:53:37;;;;;;;44.08;14.45;;;;;;;;;;6243394;28;20129;-62
2023/10/21 02:56:41;;;;;;;39.35;13.50;;;;;;;;;;6254653;28;20049;-62
2023/10/21 02:59:42;;;;;;;51.60;12.65;;;;;;;;;;6243393;28;20152;-62
2023/10/21 03:02:42;;;;;;;47.42;13.77;;;;;;;;;;6243188;28;20055;-62
2023/10/21 03:05:43;;;;;;;51.33;15.30;;;;;;;;;;6243618;28;20103;-62
2023/10/21 03:08:43;;;;;;;50.92;14.43;;;;;;;;;;6238858;28;20406;-62
2023/10/21 03:11:45;;;;;;;54.63;16.52;;;;;;;;;;6243404;28;20523;-62
2023/10/21 03:14:45;;;;;;;60.03;24.02;;;;;;;;;;6244127;28;20045;-63
2023/10/21 03:17:46;;;;;;;48.10;16.52;;;;;;;;;;6240932;28;20046;-64
2023/10/21 03:20:50;;;;;;;56.13;14.77;;;;;;;;;;6241263;28;20155;-64
2023/10/21 03:23:50;;;;;;;46.35;18.10;;;;;;;;;;6242807;28;20129;-64
2023/10/21 03:26:51;;;;;;;52.15;20.25;;;;;;;;;;6246977;28;20045;-63
2023/10/21 03:29:52;;;;;;;47.92;17.27;;;;;;;;;;6242885;28;20090;-62
2023/10/21 03:32:52;;;;;;;56.58;17.20;;;;;;;;;;6246349;28;20411;-62
2023/10/21 03:35:54;;;;;;;49.70;16.25;;;;;;;;;;6242263;28;20491;-63
2023/10/21 03:38:54;;;;;;;59.83;15.70;;;;;;;;;;6242578;28;20124;-63
2023/10/21 03:41:55;;;;;;;50.00;15.48;;;;;;;;;;6242640;28;20407;-62
2023/10/21 03:44:56;;;;;;;67.95;29.88;;;;;;;;;;6241232;28;20393;-63
2023/10/21 03:47:57;;;;;;;74.18;28.08;;;;;;;;;;6239702;28;20043;-62
2023/10/21 03:51:13;;;;;;;54.60;17.58;;;;;;;;;;6242443;28;20159;-63
2023/10/21 03:54:14;;;;;;;46.83;14.05;;;;;;;;;;6242463;28;20508;-63
2023/10/21 03:57:14;;;;;;;38.08;13.15;;;;;;;;;;6241641;28;20068;-63
2023/10/21 04:00:15;;;;;;;46.85;14.30;;;;;;;;;;6241604;28;20048;-62
2023/10/21 04:03:16;;;;;;;53.05;16.10;;;;;;;;;;6241958;28;20586;-62
2023/10/21 04:06:18;;;;;;;53.63;16.42;;;;;;;;;;6242502;28;20412;-62
2023/10/21 04:09:19;;;;;;;;;;;;;;;;;;6239873;28;20575;-63
2023/10/21 04:12:19;;;;;;;53.72;22.92;;;;;;;;;;6239128;28;20005;-62
2023/10/21 04:15:20;;;;;;;48.92;20.15;;;;;;;;;;6243620;28;20553;-63
2023/10/21 04:18:21;;;;;;;66.40;25.15;;;;;;;;;;6240579;28;20071;-63
2023/10/21 04:21:21;;;;;;;59.05;23.80;;;;;;;;;;6242065;28;20046;-63
2023/10/21 04:24:22;;;;;;;71.82;32.03;;;;;;;;;;6242140;28;20466;-63
2023/10/21 04:27:22;;;;;;;58.47;25.23;;;;;;;;;;6247828;28;20049;-63
2023/10/21 04:30:24;;;;;;;76.45;28.85;;;;;;;;;;6245210;28;20111;-63
2023/10/21 04:33:24;;;;;;;72.15;34.53;;;;;;;;;;6253378;28;20465;-63
2023/10/21 04:36:25;;;;;;;60.63;20.92;;;;;;;;;;6240932;28;20052;-62
2023/10/21 04:39:26;;;;;;;54.00;19.27;;;;;;;;;;6245325;28;20076;-62
2023/10/21 04:42:29;;;;;;;58.40;21.70;;;;;;;;;;6242063;28;20060;-62
2023/10/21 04:45:29;;;;;;;;;;;;;;;;;;6241590;28;20527;-62
2023/10/21 04:48:30;;;;;;;60.05;20.77;;;;;;;;;;6239865;28;19925;-62
2023/10/21 04:51:30;;;;;;;52.70;19.80;;;;;;;;;;6240120;28;20056;-62
2023/10/21 04:54:31;;;;;;;55.90;19.63;;;;;;;;;;6250883;28;20137;-62
2023/10/21 04:57:31;;;;;;;48.45;19.25;;;;;;;;;;6242756;28;20377;-62
2023/10/21 05:00:32;;;;;;;53.35;19.83;;;;;;;;;;6244630;28;20141;-62
2023/10/21 05:03:33;;;;;;;61.13;20.55;;;;;;;;;;6246659;28;20099;-62
2023/10/21 05:06:33;;;;;;;62.47;21.92;;;;;;;;;;6246208;28;20045;-62
2023/10/21 05:09:34;;;;;;;53.47;22.98;;;;;;;;;;6245111;28;20041;-62
2023/10/21 05:12:35;;;;;;;54.47;20.27;;;;;;;;;;6244437;28;20049;-62
2023/10/21 05:15:36;;;;;;;59.53;19.88;;;;;;;;;;6245855;28;20064;-61
2023/10/21 05:18:38;;;;;;;54.65;19.90;;;;;;;;;;6245315;28;20049;-62
2023/10/21 05:21:39;;;;;;;57.35;21.25;;;;;;;;;;6246186;28;20049;-62
2023/10/21 05:24:39;;;;;;;96.47;49.75;;;;;;;;;;6245943;28;20527;-62
2023/10/21 05:27:40;;;;;;;122.95;76.45;;;;;;;;;;6257842;28;20056;-62
2023/10/21 05:30:42;;;;;;;59.72;25.30;;;;;;;;;;6260541;28;20207;-62
2023/10/21 05:33:44;;;;;;;66.53;25.15;;;;;;;;;;6253478;28;20147;-62
2023/10/21 05:36:45;;;;;;;71.05;25.98;;;;;;;;;;6245780;28;20469;-61
2023/10/21 05:39:46;;;;;;;63.50;23.85;;;;;;;;;;6248095;28;20037;-61
2023/10/21 05:42:47;;;;;;;52.40;21.05;;;;;;;;;;6250023;28;20077;-62
2023/10/21 05:45:47;;;;;;;69.95;23.98;;;;;;;;;;6241717;28;20041;-61
2023/10/21 05:48:48;;;;;;;81.80;30.90;;;;;;;;;;6244468;28;20098;-62
2023/10/21 05:51:48;;;;;;;129.85;77.10;;;;;;;;;;6246948;28;20057;-62
2023/10/21 05:54:49;;;;;;;78.68;32.03;;;;;;;;;;6254242;28;20137;-62
2023/10/21 05:57:49;;;;;;;82.00;49.53;;;;;;;;;;6241219;28;20524;-62
2023/10/21 06:00:50;;;;;;;75.55;28.13;;;;;;;;;;6243397;28;20073;-62
2023/10/21 06:03:51;;;;;;;109.03;56.85;;;;;;;;;;6244629;28;20064;-62
2023/10/21 06:06:54;;;;;;;55.10;21.15;;;;;;;;;;6243412;28;20053;-62
2023/10/21 06:09:55;;;;;;;56.92;18.98;;;;;;;;;;6241947;28;20045;-62
2023/10/21 06:12:55;;;;;;;67.77;23.17;;;;;;;;;;6242247;28;20045;-62
2023/10/21 06:15:56;;;;;;;62.70;24.20;;;;;;;;;;6244597;28;20045;-61
2023/10/21 06:18:57;;;;;;;62.97;25.45;;;;;;;;;;6248213;28;20072;-62
2023/10/21 06:21:58;;;;;;;81.65;26.42;;;;;;;;;;6255731;28;20037;-63
2023/10/21 06:24:59;;;;;;;60.83;24.30;;;;;;;;;;6242771;28;20140;-63
2023/10/21 06:28:00;;;;;;;70.77;25.80;;;;;;;;;;6242730;28;20091;-63
2023/10/21 06:31:01;;;;;;;66.32;24.10;;;;;;;;;;6243469;28;20398;-63
2023/10/21 06:34:02;;;;;;;70.60;29.13;;;;;;;;;;6244072;28;20522;-63
2023/10/21 06:37:03;;;;;;;73.88;26.67;;;;;;;;;;6249294;28;20156;-63
2023/10/21 06:40:04;;;;;;;65.32;24.98;;;;;;;;;;6243328;28;20408;-64
2023/10/21 06:43:05;;;;;;;;;;;;;;;;;;6244497;28;20060;-64
2023/10/21 06:46:06;;;;;;;57.53;21.70;;;;;;;;;;6241262;28;19925;-63
2023/10/21 06:49:07;;;;;;;67.05;23.50;;;;;;;;;;6241203;28;20051;-65
2023/10/21 06:52:07;;;;;;;68.50;24.13;;;;;;;;;;6243804;28;20041;-64
2023/10/21 06:55:08;;;;;;;58.90;23.77;;;;;;;;;;6243533;28;20485;-64
2023/10/21 06:58:10;;;;;;;75.55;24.95;;;;;;;;;;6242286;28;20072;-64
2023/10/21 07:01:11;;;;;;;94.68;46.65;;;;;;;;;;6244182;28;20049;-64
2023/10/21 07:04:13;;;;;;;73.40;25.27;;;;;;;;;;6245224;28;20476;-65
2023/10/21 07:07:15;;;;;;;68.50;22.60;;;;;;;;;;6256825;28;20052;-64
2023/10/21 07:10:17;;;;;;;74.88;27.27;;;;;;;;;;6264542;28;20045;-66
2023/10/21 07:13:17;;;;;;;71.95;25.20;;;;;;;;;;6266295;28;20412;-64
2023/10/21 07:16:18;;;;;;;65.13;22.55;;;;;;;;;;6266066;28;20084;-62
2023/10/21 07:19:19;;;;;;;89.22;42.92;;;;;;;;;;6244759;28;20453;-65
2023/10/21 07:22:19;;;;;;;74.35;28.15;;;;;;;;;;6266508;28;20033;-66
2023/10/21 07:25:20;;;;;;;44.47;17.67;;;;;;;;;;6242356;28;20071;-66
2023/10/21 07:28:20;;;;;;;63.47;21.27;;;;;;;;;;6256518;28;20049;-65
2023/10/21 07:31:21;;;;;;;53.85;18.42;;;;;;;;;;6254481;28;20084;-66
2023/10/21 07:34:22;;;;;;;57.78;19.88;;;;;;;;;;6262427;28;20099;-66
2023/10/21 07:37:22;;;;;;;75.55;28.35;;;;;;;;;;6262796;28;20570;-66
2023/10/21 07:40:23;;;;;;;63.63;17.63;;;;;;;;;;6257612;28;20046;-65
2023/10/21 07:43:24;;;;;;;60.88;18.00;;;;;;;;;;6244565;28;20076;-64
2023/10/21 07:46:24;;;;;;;42.10;15.83;;;;;;;;;;6255862;28;20510;-62
2023/10/21 07:49:25;;;;;;;54.30;17.40;;;;;;;;;;6255729;28;20048;-65
2023/10/21 07:52:25;;;;;;;47.88;16.15;;;;;;;;;;6258924;28;20399;-63
2023/10/21 07:55:28;;;;;;;39.70;12.55;;;;;;;;;;6260226;28;20199;-62
2023/10/21 07:58:29;;;;;;;47.20;13.30;;;;;;;;;;6250922;28;20187;-63
2023/10/21 08:01:30;;;;;;;47.03;13.20;;;;;;;;;;6249009;28;20053;-64
2023/10/21 08:04:31;;;;;;;45.17;12.45;;;;;;;;;;6265001;28;20381;-63
2023/10/21 08:07:32;;;;;;;41.35;11.88;;;;;;;;;;6255666;28;20041;-64
2023/10/21 08:10:33;;;;;;;49.63;12.18;;;;;;;;;;6256797;28;20548;-64
2023/10/21 08:13:34;;;;;;;41.20;11.25;;;;;;;;;;6264418;28;20051;-64
2023/10/21 08:16:35;;;;;;;45.23;11.83;;;;;;;;;;6262517;28;20049;-64
2023/10/21 08:19:36;;;;;;;33.23;11.20;;;;;;;;;;6253517;28;20124;-66
2023/10/21 08:22:37;;;;;;;40.13;10.82;;;;;;;;;;6247482;28;20507;-68
2023/10/21 08:25:38;;;;;;;35.95;9.95;;;;;;;;;;6253049;28;20049;-68
2023/10/21 08:28:39;;;;;;;36.00;10.70;;;;;;;;;;6258307;28;20401;-65
2023/10/21 08:31:40;;;;;;;27.63;9.50;;;;;;;;;;6260671;28;20143;-65
2023/10/21 08:34:41;;;;;;;37.27;9.97;;;;;;;;;;6271433;28;20045;-64
2023/10/21 08:37:42;;;;;;;32.47;10.15;;;;;;;;;;6262871;28;20040;-64
2023/10/21 08:40:46;;;;;;;30.70;9.37;;;;;;;;;;6266943;28;20033;-64
2023/10/21 08:43:49;;;;;;;34.10;9.10;;;;;;;;;;6271198;28;20057;-64
2023/10/21 08:46:51;;;;;;;;;;;;;;;;;;6269428;28;20369;-64
2023/10/21 08:49:52;;;;;;;;;;;;;;;;;;6269011;28;19974;-64
2023/10/21 08:52:56;;;;;;;35.45;8.15;;;;;;;;;;6269265;28;20283;-64
2023/10/21 08:55:57;;;;;;;31.33;8.48;;;;;;;;;;6264612;28;20049;-64
2023/10/21 08:58:58;;;;;;;29.47;8.47;;;;;;;;;;6260404;28;20447;-64
2023/10/21 09:01:58;;;;;;;28.23;8.40;;;;;;;;;;6262403;28;20045;-63
2023/10/21 09:04:59;;;;;;;30.67;7.93;;;;;;;;;;6259427;28;20486;-65
2023/10/21 09:07:59;;;;;;;32.23;9.40;;;;;;;;;;6255573;28;20531;-64
2023/10/21 09:11:02;;;;;;;30.60;10.33;;;;;;;;;;6258388;28;20064;-65
2023/10/21 09:14:05;;;;;;;25.58;8.43;;;;;;;;;;6257355;28;20055;-64
2023/10/21 09:17:06;;;;;;;29.50;8.45;;;;;;;;;;6260543;28;20536;-64
2023/10/21 09:20:15;;;;;;;35.10;7.80;;;;;;;;;;6261539;28;20086;-64
2023/10/21 09:23:17;;;;;;;30.17;7.53;;;;;;;;;;6269306;28;20045;-63
2023/10/21 09:26:18;;;;;;;26.20;7.30;;;;;;;;;;6252879;28;20045;-63
2023/10/21 09:29:20;;;;;;;25.07;7.17;;;;;;;;;;6242822;28;20052;-63
2023/10/21 09:32:26;;;;;;;;;;;;;;;;;;6245725;28;20045;-63
2023/10/21 09:35:29;;;;;;;24.25;6.63;;;;;;;;;;6245269;28;19943;-63
2023/10/21 09:38:37;;;;;;;26.67;6.07;;;;;;;;;;6245057;28;20053;-63
2023/10/21 09:41:38;;;;;;;23.95;6.45;;;;;;;;;;6243354;28;20469;-63
2023/10/21 09:44:41;;;;;;;23.70;5.97;;;;;;;;;;6244115;28;20045;-63
2023/10/21 09:47:42;;;;;;;20.77;5.15;;;;;;;;;;6244460;28;20053;-64
2023/10/21 09:50:51;;;;;;;20.80;4.97;;;;;;;;;;6244389;28;20446;-63
2023/10/21 09:54:00;;;;;;;23.38;4.90;;;;;;;;;;6244801;28;20057;-63
2023/10/21 09:57:02;;;;;;;21.30;4.70;;;;;;;;;;6245313;28;20042;-64
2023/10/21 10:00:08;;;;;;;18.55;4.10;;;;;;;;;;6245291;28;20076;-65
2023/10/21 10:03:09;;;;;;;17.40;4.18;;;;;;;;;;6243842;28;20523;-62
2023/10/21 10:06:11;;;;;;;16.75;3.78;;;;;;;;;;6245832;28;20048;-65
2023/10/21 10:09:12;;;;;;;11.20;3.60;;;;;;;;;;6244119;28;20055;-64
2023/10/21 10:12:20;;;;;;;13.68;3.83;;;;;;;;;;6244084;28;20045;-64
2023/10/21 10:15:38;;;;;;;17.40;3.85;;;;;;;;;;6225150;28;20492;-65
2023/10/21 10:18:46;;;;;;;11.57;3.72;;;;;;;;;;6243066;28;20045;-65
2023/10/21 10:21:51;;;;;;;17.08;3.72;;;;;;;;;;6244144;28;20084;-65
2023/10/21 10:25:04;;;;;;;17.65;4.43;;;;;;;;;;6242061;28;20053;-65
2023/10/21 10:28:14;;;;;;;15.70;3.65;;;;;;;;;;6242657;28;20480;-65
2023/10/21 10:31:14;;;;;;;15.65;4.13;;;;;;;;;;6244444;28;20506;-65
2023/10/21 10:34:17;;;;;;;19.33;4.57;;;;;;;;;;6241943;28;20068;-64
2023/10/21 10:37:50;;;;;;;18.15;4.18;;;;;;;;;;6241704;28;20053;-65
2023/10/21 10:40:52;;;;;;;21.13;4.85;;;;;;;;;;6244505;28;20511;-66
2023/10/21 10:44:01;;;;;;;23.73;5.20;;;;;;;;;;6242496;28;20168;-64
2023/10/21 10:47:04;;;;;;;20.80;5.07;;;;;;;;;;6242136;28;20088;-65
2023/10/21 10:50:12;;;;;;;13.25;4.90;;;;;;;;;;6243578;28;20318;-65
2023/10/21 10:53:19;;;;;;;18.85;5.43;;;;;;;;;;6243455;28;20525;-64
2023/10/21 10:56:19;;;;;;;22.35;5.35;;;;;;;;;;6239761;28;20052;-64
2023/10/21 10:59:23;;;;;;;27.67;5.70;;;;;;;;;;6242225;28;20045;-65
2023/10/21 11:02:27;;;;;;;22.35;5.82;;;;;;;;;;6243406;28;20088;-64
2023/10/21 11:05:29;;;;;;;17.50;5.43;;;;;;;;;;6241663;28;20046;-64
2023/10/21 11:08:32;;;;;;;15.95;5.30;;;;;;;;;;6244095;28;20464;-65
2023/10/21 11:11:51;;;;;;;18.08;6.30;;;;;;;;;;6243588;28;20041;-65
2023/10/21 11:14:52;;;;;;;21.17;6.30;;;;;;;;;;6243807;28;20482;-63
2023/10/21 11:17:53;;;;;;;20.70;6.17;;;;;;;;;;6243427;28;20057;-65
2023/10/21 11:20:54;;;;;;;21.48;5.88;;;;;;;;;;6241006;28;20145;-65
2023/10/21 11:23:55;;;;;;;22.03;5.47;;;;;;;;;;6240991;28;20091;-64
2023/10/21 11:26:55;;;;;;;25.23;5.90;;;;;;;;;;6243466;28;20451;-64
2023/10/21 11:29:56;;;;;;;27.52;8.18;;;;;;;;;;6241971;28;20052;-64
2023/10/21 11:32:57;;;;;;;20.80;6.30;;;;;;;;;;6243413;28;20412;-64
2023/10/21 11:35:59;;;;;;;26.17;7.30;;;;;;;;;;6243468;28;20080;-64
2023/10/21 11:38:59;;;;;;;20.83;6.55;;;;;;;;;;6240729;28;20049;-64
2023/10/21 11:42:00;;;;;;;17.17;6.00;;;;;;;;;;6242214;28;20175;-64
2023/10/21 11:45:01;;;;;;;21.13;6.40;;;;;;;;;;6242086;28;20568;-64
2023/10/21 11:48:08;;;;;;;23.58;6.85;;;;;;;;;;6242383;28;20484;-64
2023/10/21 11:51:09;;;;;;;20.70;7.22;;;;;;;;;;6241563;28;20063;-64
2023/10/21 11:54:19;;;;;;;26.20;7.03;;;;;;;;;;6242515;28;20089;-64
2023/10/21 12:04:17;;;;;;;22.80;6.75;;;;;;;;;;6242926;28;20591;-65
2023/10/21 12:11:03;;;;;;;20.10;7.07;;;;;;;;;;6247596;28;20044;-66
2023/10/21 12:30:33;;;;;;;23.20;7.75;;;;;;;;;;6245400;28;20045;-63
2023/10/21 12:36:36;;;;;;;26.55;8.05;;;;;;;;;;6248048;28;20056;-64
2023/10/21 12:42:47;;;;;;;28.40;7.63;;;;;;;;;;6245386;28;20053;-64
2023/10/21 12:45:54;;;;;;;20.90;7.10;;;;;;;;;;6248188;28;20061;-64
2023/10/21 12:48:57;;;;;;;23.67;7.32;;;;;;;;;;6247103;28;20041;-65
2023/10/21 12:51:58;;;;;;;21.33;7.45;;;;;;;;;;6245822;28;20200;-64
2023/10/21 12:54:59;;;;;;;34.47;9.07;;;;;;;;;;6246257;28;20045;-63
2023/10/21 12:58:00;;;;;;;30.75;7.63;;;;;;;;;;6245535;28;20053;-63
2023/10/21 13:01:04;;;;;;;29.20;8.80;;;;;;;;;;6245521;28;20050;-64
2023/10/21 13:04:05;;;;;;;22.02;7.90;;;;;;;;;;6246544;28;20067;-64
2023/10/21 13:07:07;;;;;;;31.17;10.07;;;;;;;;;;6243779;28;20413;-65
2023/10/21 13:10:10;;;;;;;27.17;9.38;;;;;;;;;;6244924;28;20098;-65
2023/10/21 13:13:12;;;;;;;27.33;9.07;;;;;;;;;;6245597;28;20052;-64
2023/10/21 13:16:14;;;;;;;;;;;;;;;;;;6247336;28;20046;-65
2023/10/21 13:19:14;;;;;;;;;;;;;;;;;;6246580;28;20440;-64
2023/10/21 13:22:15;;;;;;;25.45;8.18;;;;;;;;;;6244669;28;19931;-64
2023/10/21 13:25:17;;;;;;;28.27;8.97;;;;;;;;;;6246134;28;20045;-64
2023/10/21 13:28:19;;;;;;;26.38;7.45;;;;;;;;;;6246015;28;20504;-63
2023/10/21 13:31:20;;;;;;;24.33;7.78;;;;;;;;;;6244051;28;20058;-64
2023/10/21 13:34:21;;;;;;;26.67;7.57;;;;;;;;;;6245359;28;20046;-63
2023/10/21 13:37:21;;;;;;;26.33;8.70;;;;;;;;;;6245274;28;20048;-63
2023/10/21 13:40:22;;;;;;;32.07;8.37;;;;;;;;;;6243800;28;20051;-64
2023/10/21 13:43:25;;;;;;;26.07;8.53;;;;;;;;;;6244652;28;20060;-63
2023/10/21 13:46:25;;;;;;;29.70;9.18;;;;;;;;;;6246368;28;20085;-63
2023/10/21 13:49:27;;;;;;;32.57;9.57;;;;;;;;;;6243786;28;20040;-64
2023/10/21 13:52:28;;;;;;;35.08;11.93;;;;;;;;;;6243249;28;20127;-63
2023/10/21 13:55:29;;;;;;;23.27;8.13;;;;;;;;;;6245436;28;20072;-65
2023/10/21 13:58:30;;;;;;;24.77;8.30;;;;;;;;;;6245400;28;20044;-64
2023/10/21 14:01:30;;;;;;;32.27;9.20;;;;;;;;;;6245075;28;20464;-65
2023/10/21 14:04:31;;;;;;;28.20;9.40;;;;;;;;;;6244367;28;20401;-64
2023/10/21 14:07:31;;;;;;;25.80;8.60;;;;;;;;;;6244129;28;20049;-64
2023/10/21 14:10:41;;;;;;;32.37;9.10;;;;;;;;;;6244517;28;20049;-64
2023/10/21 14:13:45;;;;;;;30.73;8.25;;;;;;;;;;6243720;28;20045;-63
2023/10/21 14:16:46;;;;;;;22.58;8.57;;;;;;;;;;6244540;28;20049;-62
2023/10/21 14:19:47;;;;;;;28.23;8.87;;;;;;;;;;6244886;28;20041;-64
2023/10/21 14:22:47;;;;;;;25.50;7.97;;;;;;;;;;6243353;28;20399;-64
2023/10/21 14:25:50;;;;;;;26.57;8.67;;;;;;;;;;6244202;28;20045;-64
2023/10/21 14:28:51;;;;;;;22.85;7.15;;;;;;;;;;6244244;28;20052;-63
2023/10/21 14:31:52;;;;;;;419.50;116.27;;;;;;;;;;6243698;28;20045;-65
2023/10/21 14:34:53;;;;;;;273.63;66.63;;;;;;;;;;6243221;28;20048;-64
2023/10/21 14:37:53;;;;;;;52.23;13.23;;;;;;;;;;6246556;28;20411;-64
2023/10/21 14:40:54;;;;;;;29.57;8.30;;;;;;;;;;6251001;28;20052;-64
2023/10/21 14:43:55;;;;;;;28.47;8.93;;;;;;;;;;6252989;28;20316;-64
2023/10/21 14:46:55;;;;;;;33.23;8.50;;;;;;;;;;6254294;28;20049;-63
2023/10/21 14:49:58;;;;;;;29.20;8.43;;;;;;;;;;6235800;28;20052;-63
2023/10/21 14:52:59;;;;;;;24.48;8.85;;;;;;;;;;6256986;28;20052;-64
2023/10/21 14:55:59;;;;;;;29.80;9.70;;;;;;;;;;6257774;28;20376;-64
2023/10/21 14:59:00;;;;;;;35.80;11.70;;;;;;;;;;6233931;28;20076;-64
2023/10/21 15:02:01;;;;;;;;;;;;;;;;;;6255313;28;20053;-64
2023/10/21 15:05:03;;;;;;;46.33;13.38;;;;;;;;;;6252739;28;20512;-63
2023/10/21 15:08:04;;;;;;;86.72;21.90;;;;;;;;;;6253139;28;20099;-64
2023/10/21 15:11:06;;;;;;;70.78;19.48;;;;;;;;;;6255377;28;20471;-62
2023/10/21 15:14:06;;;;;;;94.15;24.05;;;;;;;;;;6254212;28;20554;-63
2023/10/21 15:17:08;;;;;;;119.13;29.13;;;;;;;;;;6256475;28;20057;-62
2023/10/21 15:20:10;;;;;;;74.82;20.08;;;;;;;;;;6254556;28;20522;-65
2023/10/21 15:23:10;;;;;;;56.42;17.25;;;;;;;;;;6254928;28;20426;-65
2023/10/21 15:26:15;;;;;;;52.67;16.23;;;;;;;;;;6256675;28;20053;-66
2023/10/21 15:29:15;;;;;;;563.42;186.82;;;;;;;;;;6254074;28;20048;-65
2023/10/21 15:32:16;;;;;;;111.83;36.30;;;;;;;;;;6255866;28;20041;-63
2023/10/21 15:35:17;;;;;;;50.17;16.50;;;;;;;;;;6255533;28;20053;-62
2023/10/21 15:38:17;;;;;;;51.83;16.90;;;;;;;;;;6253784;28;20055;-65
2023/10/21 15:41:18;;;;;;;64.80;19.07;;;;;;;;;;6255423;28;20080;-65
2023/10/21 15:44:20;;;;;;;;;;;;;;;;;;6255954;28;20164;-64
2023/10/21 15:47:21;;;;;;;63.08;21.02;;;;;;;;;;6255887;28;20007;-66
2023/10/21 15:50:21;;;;;;;81.93;25.27;;;;;;;;;;6254827;28;20057;-64
2023/10/21 15:53:22;;;;;;;80.73;20.63;;;;;;;;;;6254773;28;20483;-64
2023/10/21 15:56:22;;;;;;;53.07;19.50;;;;;;;;;;6255985;28;20550;-65
2023/10/21 15:59:23;;;;;;;43.57;15.77;;;;;;;;;;6253360;28;20128;-65
2023/10/21 16:02:24;;;;;;;70.50;25.70;;;;;;;;;;6254082;28;20045;-64
2023/10/21 16:05:25;;;;;;;87.10;31.03;;;;;;;;;;6255471;28;20076;-64
2023/10/21 16:08:25;;;;;;;82.23;31.30;;;;;;;;;;6254429;28;20049;-64
2023/10/21 16:11:26;;;;;;;63.20;25.77;;;;;;;;;;6256293;28;20139;-65
2023/10/21 16:14:27;;;;;;;44.23;19.17;;;;;;;;;;6253273;28;20056;-64
2023/10/21 16:17:27;;;;;;;76.10;26.80;;;;;;;;;;6254248;28;20126;-64
2023/10/21 16:20:28;;;;;;;93.60;31.23;;;;;;;;;;6252257;28;20061;-71
2023/10/21 16:23:29;;;;;;;118.40;31.63;;;;;;;;;;6253916;28;20879;-64
2023/10/21 16:26:29;;;;;;;61.07;22.70;;;;;;;;;;6254841;28;20048;-70
2023/10/21 16:29:30;;;;;;;54.13;22.30;;;;;;;;;;6251458;28;20123;-65
2023/10/21 16:32:31;;;;;;;88.93;32.38;;;;;;;;;;6253180;28;20049;-66
2023/10/21 16:35:31;;;;;;;66.37;26.97;;;;;;;;;;6252533;28;20559;-64
2023/10/21 16:38:32;;;;;;;61.53;25.40;;;;;;;;;;6254720;28;21621;-64
2023/10/21 16:41:33;;;;;;;110.00;41.87;;;;;;;;;;6251865;28;20092;-64
2023/10/21 16:44:34;;;;;;;71.77;26.50;;;;;;;;;;6252796;28;20606;-64
2023/10/21 16:47:35;;;;;;;61.08;29.02;;;;;;;;;;6254860;28;20064;-63
2023/10/21 16:50:36;;;;;;;62.50;25.90;;;;;;;;;;6252683;28;20056;-63
2023/10/21 16:53:37;;;;;;;86.28;42.50;;;;;;;;;;6256522;28;20510;-62
2023/10/21 16:56:37;;;;;;;89.40;42.00;;;;;;;;;;6260284;28;20049;-68
2023/10/21 16:59:39;;;;;;;178.23;67.10;;;;;;;;;;6239933;28;20518;-66
2023/10/21 17:02:40;;;;;;;;;;;;;;;;;;6257897;28;20060;-63
2023/10/21 17:05:41;;;;;;;123.95;41.97;;;;;;;;;;6258591;28;19929;-64
2023/10/21 17:08:41;;;;;;;87.78;34.33;;;;;;;;;;6259221;28;20049;-63
2023/10/21 17:11:42;;;;;;;89.10;37.55;;;;;;;;;;6258621;28;20053;-63
2023/10/21 17:14:42;;;;;;;89.23;33.60;;;;;;;;;;6258430;28;20049;-62
2023/10/21 17:17:43;;;;;;;78.15;31.77;;;;;;;;;;6259487;28;20056;-63
2023/10/21 17:20:44;;;;;;;85.77;33.77;;;;;;;;;;6255389;28;20045;-63
2023/10/21 17:23:44;;;;;;;113.18;43.20;;;;;;;;;;6257116;28;20614;-63
2023/10/21 17:26:45;;;;;;;141.20;52.78;;;;;;;;;;6259826;28;20056;-63
2023/10/21 17:29:45;;;;;;;119.60;44.70;;;;;;;;;;6257463;28;20057;-64
2023/10/21 17:32:46;;;;;;;104.45;39.40;;;;;;;;;;6257273;28;20432;-63
2023/10/21 17:35:47;;;;;;;81.50;35.58;;;;;;;;;;6257865;28;20071;-63
2023/10/21 17:38:47;;;;;;;95.10;38.77;;;;;;;;;;6257983;28;20045;-64
2023/10/21 17:41:48;;;;;;;92.43;39.37;;;;;;;;;;6258561;28;20158;-63
2023/10/21 17:44:49;;;;;;;100.15;41.33;;;;;;;;;;6259221;28;20041;-63
2023/10/21 17:47:49;;;;;;;123.03;47.50;;;;;;;;;;6258939;28;20041;-63
2023/10/21 17:50:50;;;;;;;89.53;37.33;;;;;;;;;;6256577;28;20048;-64
2023/10/21 17:53:51;;;;;;;105.38;40.00;;;;;;;;;;6257410;28;20103;-63
2023/10/21 17:56:51;;;;;;;102.65;42.45;;;;;;;;;;6258500;28;20052;-63
2023/10/21 17:59:52;;;;;;;88.78;38.33;;;;;;;;;;6256377;28;20159;-61
2023/10/21 18:02:53;;;;;;;92.93;38.63;;;;;;;;;;6256499;28;20423;-61
2023/10/21 18:05:53;;;;;;;82.10;34.57;;;;;;;;;;6256288;28;20151;-62
2023/10/21 18:08:55;;;;;;;86.80;39.00;;;;;;;;;;6256262;28;20087;-62
2023/10/21 18:11:55;;;;;;;103.60;48.58;;;;;;;;;;6237664;28;20516;-63
2023/10/21 18:14:56;;;;;;;92.55;40.17;;;;;;;;;;6255703;28;20488;-62
2023/10/21 18:17:57;;;;;;;93.70;39.17;;;;;;;;;;6248703;28;20537;-63